sensor_id;sensor_type;location;lat;lon;timestamp;temperature;humidity
35523;DHT22;61478;50.820;4.330;2023-09-08T00:00:57;23.10;99.90
35523;DHT22;61478;50.820;4.330;2023-09-08T00:03:23;22.90;99.90
35523;DHT22;61478;50.820;4.330;2023-09-08T00:05:48;22.90;99.90
35523;DHT22;61478;50.820;4.330;2023-09-08T00:08:14;22.80;99.90
35523;DHT22;61478;50.820;4.330;2023-09-08T00:10:40;22.80;99.90
35523;DHT22;61478;50.820;4.330;2023-09-08T00:13:06;22.80;99.90
35523;DHT22;61478;50.820;4.330;2023-09-08T00:15:33;22.80;99.90
35523;DHT22;61478;50.820;4.330;2023-09-08T00:18:01;22.80;99.90
35523;DHT22;61478;50.820;4.330;2023-09-08T00:20:26;22.80;99.90
35523;DHT22;61478;50.820;4.330;2023-09-08T00:22:52;22.90;99.90
35523;DHT22;61478;50.820;4.330;2023-09-08T00:25:18;22.90;99.90
35523;DHT22;61478;50.820;4.330;2023-09-08T00:27:43;23.00;99.90
35523;DHT22;61478;50.820;4.330;2023-09-08T00:30:10;23.10;99.90
35523;DHT22;61478;50.820;4.330;2023-09-08T00:32:36;23.10;99.90
35523;DHT22;61478;50.820;4.330;2023-09-08T00:35:01;23.20;99.90
35523;DHT22;61478;50.820;4.330;2023-09-08T00:37:27;23.30;99.90
35523;DHT22;61478;50.820;4.330;2023-09-08T00:39:53;23.30;99.90
35523;DHT22;61478;50.820;4.330;2023-09-08T00:42:18;23.20;99.90
35523;DHT22;61478;50.820;4.330;2023-09-08T00:44:44;23.20;99.90
35523;DHT22;61478;50.820;4.330;2023-09-08T00:47:10;23.00;99.90
35523;DHT22;61478;50.820;4.330;2023-09-08T00:49:36;22.80;99.90
35523;DHT22;61478;50.820;4.330;2023-09-08T00:52:02;22.60;99.90
35523;DHT22;61478;50.820;4.330;2023-09-08T00:54:28;22.50;99.90
35523;DHT22;61478;50.820;4.330;2023-09-08T00:56:57;22.50;99.90
35523;DHT22;61478;50.820;4.330;2023-09-08T00:59:23;22.70;99.90
35523;DHT22;61478;50.820;4.330;2023-09-08T01:01:50;22.60;99.90
35523;DHT22;61478;50.820;4.330;2023-09-08T01:04:16;22.40;99.90
35523;DHT22;61478;50.820;4.330;2023-09-08T01:06:42;22.40;99.90
35523;DHT22;61478;50.820;4.330;2023-09-08T01:09:09;22.40;99.90
35523;DHT22;61478;50.820;4.330;2023-09-08T01:11:35;22.50;99.90
35523;DHT22;61478;50.820;4.330;2023-09-08T01:14:01;22.60;99.90
35523;DHT22;61478;50.820;4.330;2023-09-08T01:16:27;22.50;99.90
35523;DHT22;61478;50.820;4.330;2023-09-08T01:18:54;22.30;99.90
35523;DHT22;61478;50.820;4.330;2023-09-08T01:21:44;22.30;99.90
35523;DHT22;61478;50.820;4.330;2023-09-08T01:27:03;22.00;99.90
35523;DHT22;61478;50.820;4.330;2023-09-08T01:29:30;21.90;99.90
35523;DHT22;61478;50.820;4.330;2023-09-08T01:31:56;22.00;99.90
35523;DHT22;61478;50.820;4.330;2023-09-08T01:34:22;22.10;99.90
35523;DHT22;61478;50.820;4.330;2023-09-08T01:36:49;22.10;99.90
35523;DHT22;61478;50.820;4.330;2023-09-08T01:39:14;22.10;99.90
35523;DHT22;61478;50.820;4.330;2023-09-08T01:41:40;22.00;99.90
35523;DHT22;61478;50.820;4.330;2023-09-08T01:44:06;22.00;99.90
35523;DHT22;61478;50.820;4.330;2023-09-08T01:46:35;22.00;99.90
35523;DHT22;61478;50.820;4.330;2023-09-08T01:49:01;22.00;99.90
35523;DHT22;61478;50.820;4.330;2023-09-08T01:51:27;22.10;99.90
35523;DHT22;61478;50.820;4.330;2023-09-08T01:53:52;22.10;99.90
35523;DHT22;61478;50.820;4.330;2023-09-08T01:56:18;22.00;99.90
35523;DHT22;61478;50.820;4.330;2023-09-08T01:58:44;22.10;99.90
35523;DHT22;61478;50.820;4.330;2023-09-08T02:01:10;22.10;99.90
35523;DHT22;61478;50.820;4.330;2023-09-08T02:03:35;22.20;99.90
35523;DHT22;61478;50.820;4.330;2023-09-08T02:06:01;22.20;99.90
35523;DHT22;61478;50.820;4.330;2023-09-08T02:08:27;22.00;99.90
35523;DHT22;61478;50.820;4.330;2023-09-08T02:10:52;22.10;99.90
35523;DHT22;61478;50.820;4.330;2023-09-08T02:13:18;22.10;99.90
35523;DHT22;61478;50.820;4.330;2023-09-08T02:15:44;22.10;99.90
35523;DHT22;61478;50.820;4.330;2023-09-08T02:18:10;22.10;99.90
35523;DHT22;61478;50.820;4.330;2023-09-08T02:20:35;22.10;99.90
35523;DHT22;61478;50.820;4.330;2023-09-08T02:23:06;22.10;99.90
35523;DHT22;61478;50.820;4.330;2023-09-08T02:25:32;21.90;99.90
35523;DHT22;61478;50.820;4.330;2023-09-08T02:27:58;21.80;99.90
35523;DHT22;61478;50.820;4.330;2023-09-08T02:30:23;21.60;99.90
35523;DHT22;61478;50.820;4.330;2023-09-08T02:32:49;21.60;99.90
35523;DHT22;61478;50.820;4.330;2023-09-08T02:35:15;21.80;99.90
35523;DHT22;61478;50.820;4.330;2023-09-08T02:37:41;21.80;99.90
35523;DHT22;61478;50.820;4.330;2023-09-08T02:40:07;21.90;99.90
35523;DHT22;61478;50.820;4.330;2023-09-08T02:42:33;21.80;99.90
35523;DHT22;61478;50.820;4.330;2023-09-08T02:44:58;21.80;99.90
35523;DHT22;61478;50.820;4.330;2023-09-08T02:47:24;21.70;99.90
35523;DHT22;61478;50.820;4.330;2023-09-08T02:49:50;21.90;99.90
35523;DHT22;61478;50.820;4.330;2023-09-08T02:52:15;21.90;99.90
35523;DHT22;61478;50.820;4.330;2023-09-08T02:54:41;21.90;99.90
35523;DHT22;61478;50.820;4.330;2023-09-08T02:57:07;21.90;99.90
35523;DHT22;61478;50.820;4.330;2023-09-08T02:59:32;21.90;99.90
35523;DHT22;61478;50.820;4.330;2023-09-08T03:01:59;21.90;99.90
35523;DHT22;61478;50.820;4.330;2023-09-08T03:04:25;21.90;99.90
35523;DHT22;61478;50.820;4.330;2023-09-08T03:06:51;22.00;99.90
35523;DHT22;61478;50.820;4.330;2023-09-08T03:09:17;22.20;99.90
35523;DHT22;61478;50.820;4.330;2023-09-08T03:11:42;22.10;99.90
35523;DHT22;61478;50.820;4.330;2023-09-08T03:14:08;22.00;99.90
35523;DHT22;61478;50.820;4.330;2023-09-08T03:16:34;21.80;99.90
35523;DHT22;61478;50.820;4.330;2023-09-08T03:18:59;21.80;99.90
35523;DHT22;61478;50.820;4.330;2023-09-08T03:21:25;21.90;99.90
35523;DHT22;61478;50.820;4.330;2023-09-08T03:23:51;21.90;99.90
35523;DHT22;61478;50.820;4.330;2023-09-08T03:26:16;21.90;99.90
35523;DHT22;61478;50.820;4.330;2023-09-08T03:28:42;22.00;99.90
35523;DHT22;61478;50.820;4.330;2023-09-08T03:31:08;21.90;99.90
35523;DHT22;61478;50.820;4.330;2023-09-08T03:33:34;21.90;99.90
35523;DHT22;61478;50.820;4.330;2023-09-08T03:36:01;22.00;99.90
35523;DHT22;61478;50.820;4.330;2023-09-08T03:38:27;21.80;99.90
35523;DHT22;61478;50.820;4.330;2023-09-08T03:40:52;21.90;99.90
35523;DHT22;61478;50.820;4.330;2023-09-08T03:43:18;21.80;99.90
35523;DHT22;61478;50.820;4.330;2023-09-08T03:45:44;21.90;99.90
35523;DHT22;61478;50.820;4.330;2023-09-08T03:48:10;21.90;99.90
35523;DHT22;61478;50.820;4.330;2023-09-08T03:50:36;21.80;99.90
35523;DHT22;61478;50.820;4.330;2023-09-08T03:53:01;21.70;99.90
35523;DHT22;61478;50.820;4.330;2023-09-08T03:55:27;21.70;99.90
35523;DHT22;61478;50.820;4.330;2023-09-08T03:57:53;21.60;99.90
35523;DHT22;61478;50.820;4.330;2023-09-08T04:00:19;21.60;99.90
35523;DHT22;61478;50.820;4.330;2023-09-08T04:02:48;21.60;99.90
35523;DHT22;61478;50.820;4.330;2023-09-08T04:05:15;21.70;99.90
35523;DHT22;61478;50.820;4.330;2023-09-08T04:07:41;21.80;99.90
35523;DHT22;61478;50.820;4.330;2023-09-08T04:10:08;21.60;99.90
35523;DHT22;61478;50.820;4.330;2023-09-08T04:12:34;21.50;99.90
35523;DHT22;61478;50.820;4.330;2023-09-08T04:15:00;21.60;99.90
35523;DHT22;61478;50.820;4.330;2023-09-08T04:17:26;21.60;99.90
35523;DHT22;61478;50.820;4.330;2023-09-08T04:19:52;21.60;99.90
35523;DHT22;61478;50.820;4.330;2023-09-08T04:22:17;21.60;99.90
35523;DHT22;61478;50.820;4.330;2023-09-08T04:24:43;21.50;99.90
35523;DHT22;61478;50.820;4.330;2023-09-08T04:27:09;21.60;99.90
35523;DHT22;61478;50.820;4.330;2023-09-08T04:29:36;21.70;99.90
35523;DHT22;61478;50.820;4.330;2023-09-08T04:32:02;21.70;99.90
35523;DHT22;61478;50.820;4.330;2023-09-08T04:34:37;21.70;99.90
35523;DHT22;61478;50.820;4.330;2023-09-08T04:37:03;21.70;99.90
35523;DHT22;61478;50.820;4.330;2023-09-08T04:39:28;21.70;99.90
35523;DHT22;61478;50.820;4.330;2023-09-08T04:41:54;21.70;99.90
35523;DHT22;61478;50.820;4.330;2023-09-08T04:44:20;21.60;99.90
35523;DHT22;61478;50.820;4.330;2023-09-08T04:46:46;21.60;99.90
35523;DHT22;61478;50.820;4.330;2023-09-08T04:49:11;21.50;99.90
35523;DHT22;61478;50.820;4.330;2023-09-08T04:51:37;21.60;99.90
35523;DHT22;61478;50.820;4.330;2023-09-08T04:54:03;21.50;99.90
35523;DHT22;61478;50.820;4.330;2023-09-08T04:56:28;21.40;99.90
35523;DHT22;61478;50.820;4.330;2023-09-08T04:58:54;21.50;99.90
35523;DHT22;61478;50.820;4.330;2023-09-08T05:01:20;21.30;99.90
35523;DHT22;61478;50.820;4.330;2023-09-08T05:03:46;21.40;99.90
35523;DHT22;61478;50.820;4.330;2023-09-08T05:06:12;21.40;99.90
35523;DHT22;61478;50.820;4.330;2023-09-08T05:08:39;21.60;99.90
35523;DHT22;61478;50.820;4.330;2023-09-08T05:11:05;21.70;99.90
35523;DHT22;61478;50.820;4.330;2023-09-08T05:13:31;21.70;99.90
35523;DHT22;61478;50.820;4.330;2023-09-08T05:15:56;21.80;99.90
35523;DHT22;61478;50.820;4.330;2023-09-08T05:18:28;21.90;99.90
35523;DHT22;61478;50.820;4.330;2023-09-08T05:20:54;21.80;99.90
35523;DHT22;61478;50.820;4.330;2023-09-08T05:23:20;21.70;99.90
35523;DHT22;61478;50.820;4.330;2023-09-08T05:25:45;21.80;99.90
35523;DHT22;61478;50.820;4.330;2023-09-08T05:28:11;21.70;99.90
35523;DHT22;61478;50.820;4.330;2023-09-08T05:30:37;21.50;99.90
35523;DHT22;61478;50.820;4.330;2023-09-08T05:33:03;21.40;99.90
35523;DHT22;61478;50.820;4.330;2023-09-08T05:35:28;21.10;99.90
35523;DHT22;61478;50.820;4.330;2023-09-08T05:37:54;20.90;99.90
35523;DHT22;61478;50.820;4.330;2023-09-08T05:40:19;21.00;99.90
35523;DHT22;61478;50.820;4.330;2023-09-08T05:42:49;20.90;99.90
35523;DHT22;61478;50.820;4.330;2023-09-08T05:45:15;20.90;99.90
35523;DHT22;61478;50.820;4.330;2023-09-08T05:47:41;21.00;99.90
35523;DHT22;61478;50.820;4.330;2023-09-08T05:50:06;21.10;99.90
35523;DHT22;61478;50.820;4.330;2023-09-08T05:52:32;21.20;99.90
35523;DHT22;61478;50.820;4.330;2023-09-08T05:54:58;21.40;99.90
35523;DHT22;61478;50.820;4.330;2023-09-08T05:57:24;21.60;99.90
35523;DHT22;61478;50.820;4.330;2023-09-08T05:59:50;21.60;99.90
35523;DHT22;61478;50.820;4.330;2023-09-08T06:02:16;21.60;99.90
35523;DHT22;61478;50.820;4.330;2023-09-08T06:04:42;21.60;99.90
35523;DHT22;61478;50.820;4.330;2023-09-08T06:07:07;21.60;99.90
35523;DHT22;61478;50.820;4.330;2023-09-08T06:09:33;21.60;99.90
35523;DHT22;61478;50.820;4.330;2023-09-08T06:11:59;21.60;99.90
35523;DHT22;61478;50.820;4.330;2023-09-08T06:14:25;21.60;99.90
35523;DHT22;61478;50.820;4.330;2023-09-08T06:16:51;21.70;99.90
35523;DHT22;61478;50.820;4.330;2023-09-08T06:19:17;21.70;99.90
35523;DHT22;61478;50.820;4.330;2023-09-08T06:21:42;21.80;99.90
35523;DHT22;61478;50.820;4.330;2023-09-08T06:24:08;21.70;99.90
35523;DHT22;61478;50.820;4.330;2023-09-08T06:26:34;21.60;99.90
35523;DHT22;61478;50.820;4.330;2023-09-08T06:29:00;21.50;99.90
35523;DHT22;61478;50.820;4.330;2023-09-08T06:31:26;21.50;99.90
35523;DHT22;61478;50.820;4.330;2023-09-08T06:33:52;21.40;99.90
35523;DHT22;61478;50.820;4.330;2023-09-08T06:36:18;21.40;99.90
35523;DHT22;61478;50.820;4.330;2023-09-08T06:38:44;21.40;99.90
35523;DHT22;61478;50.820;4.330;2023-09-08T06:41:13;21.40;99.90
35523;DHT22;61478;50.820;4.330;2023-09-08T06:43:39;21.40;99.90
35523;DHT22;61478;50.820;4.330;2023-09-08T06:46:04;21.50;99.90
35523;DHT22;61478;50.820;4.330;2023-09-08T06:48:30;21.60;99.90
35523;DHT22;61478;50.820;4.330;2023-09-08T06:50:56;21.70;99.90
35523;DHT22;61478;50.820;4.330;2023-09-08T06:53:25;21.60;99.90
35523;DHT22;61478;50.820;4.330;2023-09-08T06:55:51;21.60;99.90
35523;DHT22;61478;50.820;4.330;2023-09-08T06:58:17;21.60;99.90
35523;DHT22;61478;50.820;4.330;2023-09-08T07:00:43;21.70;99.90
35523;DHT22;61478;50.820;4.330;2023-09-08T07:03:09;21.60;99.90
35523;DHT22;61478;50.820;4.330;2023-09-08T07:05:35;21.60;99.90
35523;DHT22;61478;50.820;4.330;2023-09-08T07:08:01;21.70;99.90
35523;DHT22;61478;50.820;4.330;2023-09-08T07:10:27;21.60;99.90
35523;DHT22;61478;50.820;4.330;2023-09-08T07:12:52;21.50;99.90
35523;DHT22;61478;50.820;4.330;2023-09-08T07:15:18;21.40;99.90
35523;DHT22;61478;50.820;4.330;2023-09-08T07:17:44;21.40;99.90
35523;DHT22;61478;50.820;4.330;2023-09-08T07:20:10;21.40;99.90
35523;DHT22;61478;50.820;4.330;2023-09-08T07:22:35;21.40;99.90
35523;DHT22;61478;50.820;4.330;2023-09-08T07:25:01;21.40;99.90
35523;DHT22;61478;50.820;4.330;2023-09-08T07:27:27;21.40;99.90
35523;DHT22;61478;50.820;4.330;2023-09-08T07:29:53;21.50;99.90
35523;DHT22;61478;50.820;4.330;2023-09-08T07:32:18;21.60;99.90
35523;DHT22;61478;50.820;4.330;2023-09-08T07:34:44;21.90;99.90
35523;DHT22;61478;50.820;4.330;2023-09-08T07:37:10;22.00;99.90
35523;DHT22;61478;50.820;4.330;2023-09-08T07:39:36;22.20;99.90
35523;DHT22;61478;50.820;4.330;2023-09-08T07:42:02;22.30;99.90
35523;DHT22;61478;50.820;4.330;2023-09-08T07:44:28;22.30;99.90
35523;DHT22;61478;50.820;4.330;2023-09-08T07:46:54;22.40;99.90
35523;DHT22;61478;50.820;4.330;2023-09-08T07:49:21;22.40;99.90
35523;DHT22;61478;50.820;4.330;2023-09-08T07:51:47;22.50;99.90
35523;DHT22;61478;50.820;4.330;2023-09-08T07:54:13;22.40;99.90
35523;DHT22;61478;50.820;4.330;2023-09-08T07:56:40;22.60;99.90
35523;DHT22;61478;50.820;4.330;2023-09-08T07:59:06;22.50;99.90
35523;DHT22;61478;50.820;4.330;2023-09-08T08:01:32;22.60;99.90
35523;DHT22;61478;50.820;4.330;2023-09-08T08:03:58;22.60;99.90
35523;DHT22;61478;50.820;4.330;2023-09-08T08:06:24;22.70;99.90
35523;DHT22;61478;50.820;4.330;2023-09-08T08:08:49;22.80;99.90
35523;DHT22;61478;50.820;4.330;2023-09-08T08:11:16;22.60;99.90
35523;DHT22;61478;50.820;4.330;2023-09-08T08:13:46;22.60;99.90
35523;DHT22;61478;50.820;4.330;2023-09-08T08:16:12;22.60;99.90
35523;DHT22;61478;50.820;4.330;2023-09-08T08:18:37;22.70;99.90
35523;DHT22;61478;50.820;4.330;2023-09-08T08:21:03;22.80;99.90
35523;DHT22;61478;50.820;4.330;2023-09-08T08:23:30;22.90;99.90
35523;DHT22;61478;50.820;4.330;2023-09-08T08:25:56;23.00;99.90
35523;DHT22;61478;50.820;4.330;2023-09-08T08:28:22;23.10;99.90
35523;DHT22;61478;50.820;4.330;2023-09-08T08:30:49;23.10;99.90
35523;DHT22;61478;50.820;4.330;2023-09-08T08:33:15;23.20;99.90
35523;DHT22;61478;50.820;4.330;2023-09-08T08:35:41;23.30;99.90
35523;DHT22;61478;50.820;4.330;2023-09-08T08:38:06;23.50;99.90
35523;DHT22;61478;50.820;4.330;2023-09-08T08:40:32;23.60;99.90
35523;DHT22;61478;50.820;4.330;2023-09-08T08:43:00;23.60;99.90
35523;DHT22;61478;50.820;4.330;2023-09-08T08:45:26;23.70;99.90
35523;DHT22;61478;50.820;4.330;2023-09-08T08:47:53;23.80;99.90
35523;DHT22;61478;50.820;4.330;2023-09-08T08:50:19;23.80;99.90
35523;DHT22;61478;50.820;4.330;2023-09-08T08:52:46;23.80;99.90
35523;DHT22;61478;50.820;4.330;2023-09-08T08:55:13;23.80;99.90
35523;DHT22;61478;50.820;4.330;2023-09-08T08:57:41;23.80;99.90
35523;DHT22;61478;50.820;4.330;2023-09-08T09:00:09;23.90;99.90
35523;DHT22;61478;50.820;4.330;2023-09-08T09:02:40;23.90;99.90
35523;DHT22;61478;50.820;4.330;2023-09-08T09:05:14;23.90;99.90
35523;DHT22;61478;50.820;4.330;2023-09-08T09:07:43;23.90;99.90
35523;DHT22;61478;50.820;4.330;2023-09-08T09:10:09;23.90;99.90
35523;DHT22;61478;50.820;4.330;2023-09-08T09:12:39;24.00;99.90
35523;DHT22;61478;50.820;4.330;2023-09-08T09:15:06;24.30;99.90
35523;DHT22;61478;50.820;4.330;2023-09-08T09:17:35;24.70;99.90
35523;DHT22;61478;50.820;4.330;2023-09-08T09:20:15;25.10;99.90
35523;DHT22;61478;50.820;4.330;2023-09-08T09:22:43;25.90;99.90
35523;DHT22;61478;50.820;4.330;2023-09-08T09:25:09;26.80;99.90
35523;DHT22;61478;50.820;4.330;2023-09-08T09:27:36;28.00;99.90
35523;DHT22;61478;50.820;4.330;2023-09-08T09:30:07;29.00;99.90
35523;DHT22;61478;50.820;4.330;2023-09-08T09:32:34;30.00;99.90
35523;DHT22;61478;50.820;4.330;2023-09-08T09:35:01;30.60;99.90
35523;DHT22;61478;50.820;4.330;2023-09-08T09:37:27;31.20;99.90
35523;DHT22;61478;50.820;4.330;2023-09-08T09:39:54;31.60;99.90
35523;DHT22;61478;50.820;4.330;2023-09-08T09:42:21;31.90;99.90
35523;DHT22;61478;50.820;4.330;2023-09-08T09:44:48;32.40;99.90
35523;DHT22;61478;50.820;4.330;2023-09-08T09:47:14;32.70;99.90
35523;DHT22;61478;50.820;4.330;2023-09-08T09:49:45;33.10;99.90
35523;DHT22;61478;50.820;4.330;2023-09-08T09:52:20;33.40;99.90
35523;DHT22;61478;50.820;4.330;2023-09-08T09:54:46;33.40;99.90
35523;DHT22;61478;50.820;4.330;2023-09-08T09:57:16;33.60;99.90
35523;DHT22;61478;50.820;4.330;2023-09-08T09:59:42;33.70;99.90
35523;DHT22;61478;50.820;4.330;2023-09-08T10:02:14;33.90;99.90
35523;DHT22;61478;50.820;4.330;2023-09-08T10:04:41;33.80;99.90
35523;DHT22;61478;50.820;4.330;2023-09-08T10:07:08;34.00;99.90
35523;DHT22;61478;50.820;4.330;2023-09-08T10:09:35;34.30;99.90
35523;DHT22;61478;50.820;4.330;2023-09-08T10:12:05;34.00;99.90
35523;DHT22;61478;50.820;4.330;2023-09-08T10:14:41;34.00;99.90
35523;DHT22;61478;50.820;4.330;2023-09-08T10:17:12;34.40;99.90
35523;DHT22;61478;50.820;4.330;2023-09-08T10:19:40;34.60;99.90
35523;DHT22;61478;50.820;4.330;2023-09-08T10:22:12;34.70;99.90
35523;DHT22;61478;50.820;4.330;2023-09-08T10:24:39;35.00;99.90
35523;DHT22;61478;50.820;4.330;2023-09-08T10:27:12;34.80;99.90
35523;DHT22;61478;50.820;4.330;2023-09-08T10:29:38;34.90;99.90
35523;DHT22;61478;50.820;4.330;2023-09-08T10:32:06;35.00;99.90
35523;DHT22;61478;50.820;4.330;2023-09-08T10:34:33;35.10;99.90
35523;DHT22;61478;50.820;4.330;2023-09-08T10:37:00;35.10;99.90
35523;DHT22;61478;50.820;4.330;2023-09-08T10:47:14;35.30;99.90
35523;DHT22;61478;50.820;4.330;2023-09-08T10:49:40;35.30;99.90
35523;DHT22;61478;50.820;4.330;2023-09-08T10:52:11;35.30;99.90
35523;DHT22;61478;50.820;4.330;2023-09-08T10:55:03;35.60;99.90
35523;DHT22;61478;50.820;4.330;2023-09-08T10:57:29;35.50;99.90
35523;DHT22;61478;50.820;4.330;2023-09-08T11:00:01;35.60;99.90
35523;DHT22;61478;50.820;4.330;2023-09-08T11:02:39;35.60;99.90
35523;DHT22;61478;50.820;4.330;2023-09-08T11:07:36;35.50;99.90
35523;DHT22;61478;50.820;4.330;2023-09-08T11:10:03;35.50;99.90
35523;DHT22;61478;50.820;4.330;2023-09-08T11:12:30;35.50;99.90
35523;DHT22;61478;50.820;4.330;2023-09-08T11:14:56;35.40;99.90
35523;DHT22;61478;50.820;4.330;2023-09-08T11:17:28;35.30;99.90
35523;DHT22;61478;50.820;4.330;2023-09-08T11:19:54;35.40;99.90
35523;DHT22;61478;50.820;4.330;2023-09-08T11:22:23;35.50;99.90
35523;DHT22;61478;50.820;4.330;2023-09-08T11:24:53;35.30;99.90
35523;DHT22;61478;50.820;4.330;2023-09-08T11:27:22;35.30;99.90
35523;DHT22;61478;50.820;4.330;2023-09-08T11:29:48;35.20;99.90
35523;DHT22;61478;50.820;4.330;2023-09-08T11:32:14;35.40;99.90
35523;DHT22;61478;50.820;4.330;2023-09-08T11:34:40;35.40;99.90
35523;DHT22;61478;50.820;4.330;2023-09-08T11:37:10;35.00;99.90
35523;DHT22;61478;50.820;4.330;2023-09-08T11:39:39;35.00;99.30
35523;DHT22;61478;50.820;4.330;2023-09-08T11:42:07;35.30;99.90
35523;DHT22;61478;50.820;4.330;2023-09-08T11:44:34;35.40;99.90
35523;DHT22;61478;50.820;4.330;2023-09-08T11:47:05;34.70;99.90
35523;DHT22;61478;50.820;4.330;2023-09-08T11:49:39;34.50;99.90
35523;DHT22;61478;50.820;4.330;2023-09-08T11:52:06;34.60;99.90
35523;DHT22;61478;50.820;4.330;2023-09-08T11:54:32;34.70;99.90
35523;DHT22;61478;50.820;4.330;2023-09-08T11:57:04;34.70;99.90
35523;DHT22;61478;50.820;4.330;2023-09-08T11:59:34;34.90;99.90
35523;DHT22;61478;50.820;4.330;2023-09-08T12:02:00;35.00;99.90
35523;DHT22;61478;50.820;4.330;2023-09-08T12:04:27;34.80;99.90
35523;DHT22;61478;50.820;4.330;2023-09-08T12:06:54;34.30;99.90
35523;DHT22;61478;50.820;4.330;2023-09-08T12:09:21;34.40;99.90
35523;DHT22;61478;50.820;4.330;2023-09-08T12:11:47;34.50;99.90
35523;DHT22;61478;50.820;4.330;2023-09-08T12:14:14;34.50;99.90
35523;DHT22;61478;50.820;4.330;2023-09-08T12:16:41;34.20;99.90
35523;DHT22;61478;50.820;4.330;2023-09-08T12:19:08;34.00;99.70
35523;DHT22;61478;50.820;4.330;2023-09-08T12:21:54;34.30;99.80
35523;DHT22;61478;50.820;4.330;2023-09-08T12:24:20;34.00;99.90
35523;DHT22;61478;50.820;4.330;2023-09-08T12:26:49;33.50;99.90
35523;DHT22;61478;50.820;4.330;2023-09-08T12:29:15;33.30;99.90
35523;DHT22;61478;50.820;4.330;2023-09-08T12:31:41;33.00;99.90
35523;DHT22;61478;50.820;4.330;2023-09-08T12:34:08;32.90;99.90
35523;DHT22;61478;50.820;4.330;2023-09-08T12:36:36;32.90;99.90
35523;DHT22;61478;50.820;4.330;2023-09-08T12:39:04;32.80;99.90
35523;DHT22;61478;50.820;4.330;2023-09-08T12:41:32;33.00;99.90
35523;DHT22;61478;50.820;4.330;2023-09-08T12:43:58;33.20;99.90
35523;DHT22;61478;50.820;4.330;2023-09-08T12:46:25;33.00;99.90
35523;DHT22;61478;50.820;4.330;2023-09-08T12:48:51;33.00;99.90
35523;DHT22;61478;50.820;4.330;2023-09-08T12:51:17;33.00;99.90
35523;DHT22;61478;50.820;4.330;2023-09-08T12:53:42;33.10;99.90
35523;DHT22;61478;50.820;4.330;2023-09-08T12:56:08;33.10;99.90
35523;DHT22;61478;50.820;4.330;2023-09-08T12:58:34;33.00;99.90
35523;DHT22;61478;50.820;4.330;2023-09-08T13:01:00;32.80;99.90
35523;DHT22;61478;50.820;4.330;2023-09-08T13:03:26;32.70;99.90
35523;DHT22;61478;50.820;4.330;2023-09-08T13:05:54;32.80;99.90
35523;DHT22;61478;50.820;4.330;2023-09-08T13:08:20;32.70;99.90
35523;DHT22;61478;50.820;4.330;2023-09-08T13:10:45;32.50;99.90
35523;DHT22;61478;50.820;4.330;2023-09-08T13:13:12;32.80;99.90
35523;DHT22;61478;50.820;4.330;2023-09-08T13:15:38;32.80;99.90
35523;DHT22;61478;50.820;4.330;2023-09-08T13:18:03;32.60;99.90
35523;DHT22;61478;50.820;4.330;2023-09-08T13:20:29;32.50;99.90
35523;DHT22;61478;50.820;4.330;2023-09-08T13:22:55;32.60;99.90
35523;DHT22;61478;50.820;4.330;2023-09-08T13:25:21;32.60;99.90
35523;DHT22;61478;50.820;4.330;2023-09-08T13:27:47;32.70;99.90
35523;DHT22;61478;50.820;4.330;2023-09-08T13:30:14;32.60;99.90
35523;DHT22;61478;50.820;4.330;2023-09-08T13:32:41;32.50;99.90
35523;DHT22;61478;50.820;4.330;2023-09-08T13:35:08;32.50;99.90
35523;DHT22;61478;50.820;4.330;2023-09-08T13:37:34;32.40;99.90
35523;DHT22;61478;50.820;4.330;2023-09-08T13:40:03;32.10;99.90
35523;DHT22;61478;50.820;4.330;2023-09-08T13:42:29;32.10;99.90
35523;DHT22;61478;50.820;4.330;2023-09-08T13:44:55;32.20;99.90
35523;DHT22;61478;50.820;4.330;2023-09-08T13:47:21;32.20;99.90
35523;DHT22;61478;50.820;4.330;2023-09-08T13:49:47;32.00;99.90
35523;DHT22;61478;50.820;4.330;2023-09-08T13:52:13;31.90;99.90
35523;DHT22;61478;50.820;4.330;2023-09-08T13:54:39;31.80;99.90
35523;DHT22;61478;50.820;4.330;2023-09-08T13:57:06;31.70;99.90
35523;DHT22;61478;50.820;4.330;2023-09-08T13:59:32;31.80;99.90
35523;DHT22;61478;50.820;4.330;2023-09-08T14:01:58;31.70;99.90
35523;DHT22;61478;50.820;4.330;2023-09-08T14:04:25;31.70;99.90
35523;DHT22;61478;50.820;4.330;2023-09-08T14:06:51;31.80;99.90
35523;DHT22;61478;50.820;4.330;2023-09-08T14:09:17;31.70;99.90
35523;DHT22;61478;50.820;4.330;2023-09-08T14:11:43;31.70;99.90
35523;DHT22;61478;50.820;4.330;2023-09-08T14:14:09;31.60;99.90
35523;DHT22;61478;50.820;4.330;2023-09-08T14:16:35;31.50;99.90
35523;DHT22;61478;50.820;4.330;2023-09-08T14:19:01;31.50;99.90
35523;DHT22;61478;50.820;4.330;2023-09-08T14:21:26;31.40;99.90
35523;DHT22;61478;50.820;4.330;2023-09-08T14:23:52;31.50;99.90
35523;DHT22;61478;50.820;4.330;2023-09-08T14:26:18;31.50;99.90
35523;DHT22;61478;50.820;4.330;2023-09-08T14:28:46;31.60;99.90
35523;DHT22;61478;50.820;4.330;2023-09-08T14:31:12;31.40;99.90
35523;DHT22;61478;50.820;4.330;2023-09-08T14:33:37;31.50;99.90
35523;DHT22;61478;50.820;4.330;2023-09-08T14:36:03;31.60;99.90
35523;DHT22;61478;50.820;4.330;2023-09-08T14:38:29;31.50;99.90
35523;DHT22;61478;50.820;4.330;2023-09-08T14:40:56;31.40;99.90
35523;DHT22;61478;50.820;4.330;2023-09-08T14:43:23;31.40;99.90
35523;DHT22;61478;50.820;4.330;2023-09-08T14:45:49;31.30;99.90
35523;DHT22;61478;50.820;4.330;2023-09-08T14:48:15;31.10;99.90
35523;DHT22;61478;50.820;4.330;2023-09-08T14:50:41;31.10;99.90
35523;DHT22;61478;50.820;4.330;2023-09-08T14:53:07;31.10;99.90
35523;DHT22;61478;50.820;4.330;2023-09-08T14:55:33;31.00;99.90
35523;DHT22;61478;50.820;4.330;2023-09-08T14:57:59;31.00;99.90
35523;DHT22;61478;50.820;4.330;2023-09-08T15:00:25;31.00;99.90
35523;DHT22;61478;50.820;4.330;2023-09-08T15:02:51;30.90;99.90
35523;DHT22;61478;50.820;4.330;2023-09-08T15:05:17;30.90;99.90
35523;DHT22;61478;50.820;4.330;2023-09-08T15:07:43;31.00;99.90
35523;DHT22;61478;50.820;4.330;2023-09-08T15:10:09;31.10;99.90
35523;DHT22;61478;50.820;4.330;2023-09-08T15:12:35;31.10;99.90
35523;DHT22;61478;50.820;4.330;2023-09-08T15:15:01;31.20;99.90
35523;DHT22;61478;50.820;4.330;2023-09-08T15:17:27;31.00;99.90
35523;DHT22;61478;50.820;4.330;2023-09-08T15:19:53;31.10;99.90
35523;DHT22;61478;50.820;4.330;2023-09-08T15:22:19;31.20;99.90
35523;DHT22;61478;50.820;4.330;2023-09-08T15:24:45;31.20;99.90
35523;DHT22;61478;50.820;4.330;2023-09-08T15:27:11;31.10;99.90
35523;DHT22;61478;50.820;4.330;2023-09-08T15:29:37;31.10;99.90
35523;DHT22;61478;50.820;4.330;2023-09-08T15:32:03;30.90;99.90
35523;DHT22;61478;50.820;4.330;2023-09-08T15:34:29;30.90;99.90
35523;DHT22;61478;50.820;4.330;2023-09-08T15:36:54;30.70;99.90
35523;DHT22;61478;50.820;4.330;2023-09-08T15:39:20;30.80;99.90